Terminal Aerodrome Forecast
Issued by NWS Cleveland, OH

Home | Current Version | Previous Version | Graphics & Text | Print | Product List | Glossary On
Versions: 1 2 3 4 5 6 7 8 9 10 11 12 13 14 15 16 17 18 19 20
000
FTUS41 KCLE 190500
TAFCAK
TAF
KCAK 190531Z 1906/2006 27005KT 4SM -FZDZSN BR OVC005
     FM191100 29005KT 6SM -SN OVC008
     FM191300 32005KT P6SM OVC012=

USA.gov is the U.S. government's official web portal to all federal, state and local government web resources and services.